createdAt,value
2023-03-20T00:00:55.296Z,7.50
2023-03-20T00:02:55.576Z,6.80
2023-03-20T00:04:55.903Z,8.00
2023-03-20T00:06:56.181Z,6.20
2023-03-20T00:08:56.460Z,6.10
2023-03-20T00:10:56.739Z,6.00
2023-03-20T00:12:57.005Z,7.50
2023-03-20T00:14:57.248Z,7.20
2023-03-20T00:16:57.520Z,6.10
2023-03-20T00:18:57.788Z,6.40
2023-03-20T00:20:58.078Z,6.70
2023-03-20T00:22:58.316Z,6.30
2023-03-20T00:24:58.611Z,6.50
2023-03-20T00:26:58.874Z,5.40
2023-03-20T00:28:59.141Z,5.30
2023-03-20T00:30:59.458Z,6.50
2023-03-20T00:32:59.783Z,5.30
2023-03-20T00:35:00.039Z,5.40
2023-03-20T00:37:00.276Z,4.90
2023-03-20T00:39:00.571Z,4.80
2023-03-20T00:41:00.832Z,5.10
2023-03-20T00:43:01.077Z,5.60
2023-03-20T00:45:01.345Z,5.30
2023-03-20T00:47:01.828Z,5.70
2023-03-20T00:49:02.104Z,5.20
2023-03-20T00:51:02.365Z,5.40
2023-03-20T00:53:02.619Z,4.60
2023-03-20T00:55:02.887Z,5.40
2023-03-20T00:57:03.143Z,5.40
2023-03-20T00:59:03.422Z,5.00
2023-03-20T01:01:03.764Z,5.30
2023-03-20T01:03:04.049Z,4.80
2023-03-20T01:05:04.308Z,4.50
2023-03-20T01:07:04.566Z,5.10
2023-03-20T01:09:04.809Z,4.60
2023-03-20T01:11:05.142Z,4.10
2023-03-20T01:13:05.412Z,4.20
2023-03-20T01:15:05.679Z,4.50
2023-03-20T01:17:05.918Z,4.80
2023-03-20T01:19:06.205Z,5.00
2023-03-20T01:21:06.460Z,4.00
2023-03-20T01:23:06.728Z,4.60
2023-03-20T01:25:07.014Z,3.80
2023-03-20T01:27:07.264Z,4.00
2023-03-20T01:29:07.541Z,3.70
2023-03-20T01:31:07.817Z,3.30
2023-03-20T01:33:08.121Z,3.10
2023-03-20T01:35:08.460Z,3.20
2023-03-20T01:37:08.706Z,3.10
2023-03-20T01:39:09.008Z,4.20
2023-03-20T01:41:09.233Z,3.20
2023-03-20T01:43:09.512Z,3.40
2023-03-20T01:45:09.802Z,4.00
2023-03-20T01:47:10.065Z,2.90
2023-03-20T01:49:10.289Z,4.10
2023-03-20T01:51:10.624Z,3.60
2023-03-20T01:53:10.836Z,2.90
2023-03-20T01:55:11.153Z,3.20
2023-03-20T01:57:11.399Z,4.40
2023-03-20T01:59:11.680Z,3.10
2023-03-20T02:01:11.969Z,3.30
2023-03-20T02:03:12.266Z,3.00
2023-03-20T02:05:12.646Z,5.30
2023-03-20T02:07:12.884Z,4.70
2023-03-20T02:09:13.159Z,5.50
2023-03-20T02:11:13.435Z,3.30
2023-03-20T02:13:13.739Z,4.70
2023-03-20T02:15:13.968Z,3.30
2023-03-20T02:17:14.279Z,3.30
2023-03-20T02:19:14.521Z,3.80
2023-03-20T02:21:14.780Z,4.10
2023-03-20T02:23:15.045Z,4.00
2023-03-20T02:25:15.298Z,2.70
2023-03-20T02:27:15.568Z,3.90
2023-03-20T02:29:15.858Z,3.10
2023-03-20T02:31:16.183Z,3.20
2023-03-20T02:33:16.443Z,4.00
2023-03-20T02:35:16.762Z,3.80
2023-03-20T02:37:17.083Z,3.70
2023-03-20T02:39:17.290Z,3.10
2023-03-20T02:41:17.605Z,3.50
2023-03-20T02:43:17.846Z,4.50
2023-03-20T02:45:18.667Z,3.50
2023-03-20T02:47:18.881Z,5.60
2023-03-20T02:49:19.136Z,3.40
2023-03-20T02:51:19.444Z,4.50
2023-03-20T02:53:19.705Z,4.50
2023-03-20T02:55:19.986Z,3.40
2023-03-20T02:57:20.252Z,3.20
2023-03-20T02:59:20.506Z,3.40
2023-03-20T03:01:25.738Z,4.40
2023-03-20T03:03:26.020Z,3.50
2023-03-20T03:05:26.263Z,4.20
2023-03-20T03:07:26.547Z,3.50
2023-03-20T03:09:26.830Z,3.80
2023-03-20T03:11:27.088Z,3.90
2023-03-20T03:13:27.361Z,4.30
2023-03-20T03:15:27.616Z,4.50
2023-03-20T03:17:27.892Z,4.10
2023-03-20T03:19:28.180Z,3.70
2023-03-20T03:21:28.466Z,3.90
2023-03-20T03:23:28.717Z,4.00
2023-03-20T03:25:28.995Z,4.60
2023-03-20T03:27:29.228Z,4.40
2023-03-20T03:29:29.510Z,4.80
2023-03-20T03:31:29.831Z,4.60
2023-03-20T03:33:30.094Z,4.20
2023-03-20T03:35:30.366Z,4.10
2023-03-20T03:37:30.651Z,4.00
2023-03-20T03:39:30.916Z,4.10
2023-03-20T03:41:31.205Z,5.40
2023-03-20T03:43:31.432Z,5.10
2023-03-20T03:45:31.721Z,6.60
2023-03-20T03:47:31.988Z,5.50
2023-03-20T03:49:32.306Z,5.70
2023-03-20T03:51:32.544Z,4.90
2023-03-20T03:53:32.829Z,7.10
2023-03-20T03:55:33.351Z,6.00
2023-03-20T03:57:33.801Z,5.50
2023-03-20T03:59:34.059Z,4.60
2023-03-20T04:01:34.354Z,5.80
2023-03-20T04:03:34.613Z,5.20
2023-03-20T04:05:35.234Z,6.10
2023-03-20T04:07:35.586Z,4.80
2023-03-20T04:09:35.868Z,5.20
2023-03-20T04:11:36.159Z,5.70
2023-03-20T04:13:36.382Z,5.80
2023-03-20T04:15:37.177Z,5.00
2023-03-20T04:17:37.514Z,4.60
2023-03-20T04:19:37.746Z,5.60
2023-03-20T04:21:38.056Z,6.50
2023-03-20T04:23:38.301Z,6.80
2023-03-20T04:25:38.641Z,5.00
2023-03-20T04:27:38.903Z,5.50
2023-03-20T04:29:39.399Z,5.40
2023-03-20T04:31:39.684Z,5.40
2023-03-20T04:33:39.910Z,6.70
2023-03-20T04:35:40.242Z,6.20
2023-03-20T04:37:40.463Z,5.80
2023-03-20T04:39:40.739Z,5.60
2023-03-20T04:41:40.980Z,6.50
2023-03-20T04:43:41.336Z,6.10
2023-03-20T04:45:41.624Z,6.20
2023-03-20T04:47:41.932Z,6.40
2023-03-20T04:49:42.164Z,6.30
2023-03-20T04:51:42.484Z,7.30
2023-03-20T04:53:42.928Z,6.20
2023-03-20T04:55:43.149Z,6.20
2023-03-20T04:57:44.213Z,6.50
2023-03-20T04:59:44.483Z,6.70
2023-03-20T05:01:44.710Z,6.20
2023-03-20T05:03:45.050Z,6.90
2023-03-20T05:05:45.292Z,8.50
2023-03-20T05:07:45.583Z,7.00
2023-03-20T05:09:45.865Z,7.20
2023-03-20T05:11:46.162Z,8.20
2023-03-20T05:13:46.410Z,8.10
2023-03-20T05:15:46.690Z,8.00
2023-03-20T05:17:46.926Z,7.60
2023-03-20T05:19:47.249Z,8.20
2023-03-20T05:21:47.562Z,7.40
2023-03-20T05:23:47.811Z,7.60
2023-03-20T05:25:48.052Z,7.40
2023-03-20T05:27:48.369Z,8.50
2023-03-20T05:29:48.596Z,8.00
2023-03-20T05:31:48.890Z,8.30
2023-03-20T05:33:49.137Z,9.00
2023-03-20T05:35:49.429Z,8.00
2023-03-20T05:37:49.673Z,7.80
2023-03-20T05:39:49.917Z,10.20
2023-03-20T05:41:50.213Z,8.50
2023-03-20T05:43:50.478Z,8.20
2023-03-20T05:45:50.838Z,8.50
2023-03-20T05:47:51.133Z,9.10
2023-03-20T05:49:51.427Z,10.00
2023-03-20T05:51:51.817Z,9.50
2023-03-20T05:53:52.063Z,8.80
2023-03-20T05:55:52.374Z,10.00
2023-03-20T05:57:52.638Z,10.10
2023-03-20T05:59:52.903Z,9.40
2023-03-20T06:01:53.238Z,9.50
2023-03-20T06:03:53.601Z,9.80
2023-03-20T06:05:53.884Z,9.60
2023-03-20T06:07:54.175Z,9.20
2023-03-20T06:09:54.584Z,8.90
2023-03-20T06:11:54.823Z,9.60
2023-03-20T06:13:55.094Z,9.80
2023-03-20T06:15:55.453Z,11.20
2023-03-20T06:17:55.741Z,10.00
2023-03-20T06:19:56.016Z,10.30
2023-03-20T06:21:56.344Z,11.30
2023-03-20T06:23:56.585Z,10.60
2023-03-20T06:25:56.887Z,11.80
2023-03-20T06:27:57.146Z,11.30
2023-03-20T06:29:57.401Z,12.30
2023-03-20T06:31:57.697Z,11.00
2023-03-20T06:33:57.924Z,11.20
2023-03-20T06:35:58.227Z,11.00
2023-03-20T06:37:58.492Z,11.00
2023-03-20T06:39:58.704Z,10.80
2023-03-20T06:41:59.090Z,11.80
2023-03-20T06:43:59.383Z,14.50
2023-03-20T06:45:59.656Z,11.80
2023-03-20T06:47:59.998Z,11.60
2023-03-20T06:50:00.249Z,10.70
2023-03-20T06:52:00.518Z,11.40
2023-03-20T06:54:00.782Z,10.20
2023-03-20T06:56:01.063Z,10.40
2023-03-20T06:58:01.330Z,9.70
2023-03-20T07:00:01.599Z,10.50
2023-03-20T07:02:01.914Z,10.40
2023-03-20T07:04:02.263Z,10.50
2023-03-20T07:06:02.531Z,10.60
2023-03-20T07:08:02.802Z,12.30
2023-03-20T07:10:03.073Z,11.70
2023-03-20T07:12:03.298Z,10.60
2023-03-20T07:14:03.622Z,10.40
2023-03-20T07:16:05.177Z,11.70
2023-03-20T07:18:05.620Z,11.20
2023-03-20T07:20:05.852Z,11.20
2023-03-20T07:22:06.751Z,13.10
2023-03-20T07:24:06.967Z,11.60
2023-03-20T07:26:07.271Z,15.50
2023-03-20T07:28:07.554Z,11.50
2023-03-20T07:30:07.782Z,12.90
2023-03-20T07:32:08.072Z,12.40
2023-03-20T07:34:08.394Z,13.30
2023-03-20T07:36:08.692Z,13.30
2023-03-20T07:38:08.997Z,13.40
2023-03-20T07:40:09.220Z,12.40
2023-03-20T07:42:09.489Z,11.50
2023-03-20T07:44:09.733Z,11.50
2023-03-20T07:46:10.088Z,13.90
2023-03-20T07:48:10.458Z,13.20
2023-03-20T07:50:10.688Z,13.70
2023-03-20T07:52:10.984Z,14.80
2023-03-20T07:54:11.225Z,12.40
2023-03-20T07:56:11.505Z,12.90
2023-03-20T07:58:11.766Z,14.60
2023-03-20T08:00:12.011Z,14.40
2023-03-20T08:02:12.332Z,14.90
2023-03-20T08:04:12.612Z,16.90
2023-03-20T08:06:12.830Z,15.70
2023-03-20T08:08:13.127Z,16.70
2023-03-20T08:10:14.245Z,14.90
2023-03-20T08:12:14.562Z,16.60
2023-03-20T08:14:14.840Z,16.10
2023-03-20T08:16:15.176Z,15.40
2023-03-20T08:18:15.452Z,16.70
2023-03-20T08:20:15.706Z,16.20
2023-03-20T08:22:15.964Z,14.00
2023-03-20T08:24:16.258Z,16.60
2023-03-20T08:26:16.555Z,17.40
2023-03-20T08:28:16.790Z,18.50
2023-03-20T08:30:17.051Z,17.40
2023-03-20T08:32:17.314Z,16.60
2023-03-20T08:34:17.557Z,16.90
2023-03-20T08:36:17.875Z,16.70
2023-03-20T08:38:18.104Z,17.80
2023-03-20T08:40:18.374Z,18.10
2023-03-20T08:42:18.651Z,19.00
2023-03-20T08:44:18.952Z,17.20
2023-03-20T08:46:19.287Z,19.30
2023-03-20T08:48:19.528Z,20.10
2023-03-20T08:50:19.826Z,17.50
2023-03-20T08:52:20.079Z,20.90
2023-03-20T08:54:20.322Z,18.80
2023-03-20T08:56:20.625Z,21.10
2023-03-20T08:58:20.867Z,19.10
2023-03-20T09:00:21.173Z,23.10
2023-03-20T09:02:21.478Z,20.50
2023-03-20T09:04:21.747Z,24.00
2023-03-20T09:06:22.022Z,20.60
2023-03-20T09:08:22.278Z,21.60
2023-03-20T09:10:27.456Z,22.50
2023-03-20T09:12:27.730Z,21.80
2023-03-20T09:14:28.012Z,20.60
2023-03-20T09:16:28.323Z,23.20
2023-03-20T09:18:28.551Z,21.60
2023-03-20T09:20:28.823Z,23.90
2023-03-20T09:22:29.066Z,21.50
2023-03-20T09:24:29.347Z,23.70
2023-03-20T09:26:29.615Z,22.80
2023-03-20T09:28:29.891Z,21.40
2023-03-20T09:30:30.147Z,21.50
2023-03-20T09:32:30.412Z,21.90
2023-03-20T09:34:30.705Z,22.00
2023-03-20T09:36:30.931Z,22.70
2023-03-20T09:38:31.215Z,18.90
2023-03-20T09:40:31.498Z,19.10
2023-03-20T09:42:31.757Z,18.50
2023-03-20T09:44:32.073Z,16.20
2023-03-20T09:46:32.394Z,17.00
2023-03-20T09:48:32.751Z,15.60
2023-03-20T09:50:32.988Z,15.30
2023-03-20T09:52:33.227Z,15.90
2023-03-20T09:54:47.029Z,15.10
2023-03-20T09:56:38.725Z,16.10
2023-03-20T09:58:44.766Z,14.40
2023-03-20T10:00:45.007Z,16.70
2023-03-20T10:02:45.259Z,15.30
2023-03-20T10:04:45.554Z,15.30
2023-03-20T10:06:45.815Z,15.40
2023-03-20T10:08:46.054Z,16.40
2023-03-20T10:10:46.368Z,14.60
2023-03-20T10:12:46.607Z,12.40
2023-03-20T10:14:46.898Z,11.00
2023-03-20T10:16:47.166Z,13.30
2023-03-20T10:18:47.407Z,11.70
2023-03-20T10:20:50.629Z,13.00
2023-03-20T10:22:51.105Z,11.20
2023-03-20T10:24:51.317Z,12.70
2023-03-20T10:26:51.618Z,11.80
2023-03-20T10:28:51.909Z,11.10
2023-03-20T10:30:52.150Z,11.80
2023-03-20T10:32:52.439Z,13.50
2023-03-20T10:34:52.684Z,10.80
2023-03-20T10:36:52.953Z,10.80
2023-03-20T10:38:53.221Z,11.00
2023-03-20T10:40:53.471Z,10.50
2023-03-20T10:42:53.756Z,11.30
2023-03-20T10:44:54.009Z,12.30
2023-03-20T10:46:54.330Z,12.30
2023-03-20T10:48:54.554Z,10.30
2023-03-20T10:50:54.827Z,9.80
2023-03-20T10:52:55.112Z,11.80
2023-03-20T10:54:55.400Z,12.20
2023-03-20T10:57:00.602Z,12.50
2023-03-20T10:59:01.023Z,11.60
2023-03-20T11:01:01.357Z,10.80
2023-03-20T11:03:01.870Z,11.90
2023-03-20T11:05:02.127Z,11.30
2023-03-20T11:07:02.400Z,13.00
2023-03-20T11:09:02.660Z,12.70
2023-03-20T11:11:02.936Z,10.90
2023-03-20T11:13:03.201Z,14.70
2023-03-20T11:15:03.480Z,13.60
2023-03-20T11:17:03.844Z,11.30
2023-03-20T11:19:05.959Z,12.90
2023-03-20T11:21:06.296Z,12.60
2023-03-20T11:23:06.579Z,13.30
2023-03-20T11:25:06.863Z,12.00
2023-03-20T11:27:07.154Z,11.60
2023-03-20T11:29:07.405Z,10.40
2023-03-20T11:31:07.639Z,11.30
2023-03-20T11:33:08.090Z,10.40
2023-03-20T11:35:08.422Z,9.70
2023-03-20T11:37:12.711Z,11.30
2023-03-20T11:39:12.967Z,10.60
2023-03-20T11:41:13.233Z,10.30
2023-03-20T11:43:13.510Z,9.70
2023-03-20T11:45:13.744Z,10.30
2023-03-20T11:47:14.004Z,10.70
2023-03-20T11:49:14.254Z,10.60
2023-03-20T11:51:14.579Z,11.20
2023-03-20T11:53:14.837Z,9.00
2023-03-20T11:55:15.084Z,8.30
2023-03-20T11:57:15.482Z,7.40
2023-03-20T11:59:15.747Z,5.60
2023-03-20T12:01:15.999Z,7.90
2023-03-20T12:03:16.344Z,6.90
2023-03-20T12:05:16.928Z,7.70
2023-03-20T12:07:17.203Z,5.30
2023-03-20T12:09:17.456Z,6.40
2023-03-20T12:11:17.766Z,6.50
2023-03-20T12:13:18.030Z,8.70
2023-03-20T12:15:18.261Z,7.50
2023-03-20T12:17:18.586Z,5.10
2023-03-20T12:19:18.852Z,8.40
2023-03-20T12:21:19.111Z,5.40
2023-03-20T12:23:19.382Z,7.00
2023-03-20T12:25:19.664Z,5.90
2023-03-20T12:27:19.894Z,6.30
2023-03-20T12:29:20.189Z,8.40
2023-03-20T12:31:20.658Z,8.30
2023-03-20T12:33:20.910Z,6.80
2023-03-20T12:35:21.194Z,6.00
2023-03-20T12:37:21.434Z,9.60
2023-03-20T12:39:21.704Z,6.70
2023-03-20T12:41:21.991Z,6.60
2023-03-20T12:43:22.273Z,6.00
2023-03-20T12:45:22.577Z,7.20
2023-03-20T12:47:22.821Z,6.70
2023-03-20T12:49:23.115Z,7.10
2023-03-20T12:51:23.370Z,6.90
2023-03-20T12:53:23.690Z,6.30
2023-03-20T12:55:24.061Z,4.50
2023-03-20T12:57:24.501Z,6.30
2023-03-20T12:59:24.946Z,5.40
2023-03-20T13:01:25.383Z,5.20
2023-03-20T13:03:25.837Z,5.50
2023-03-20T13:05:26.200Z,5.60
2023-03-20T13:07:26.533Z,5.70
2023-03-20T13:09:26.979Z,5.10
2023-03-20T13:11:27.439Z,5.50
2023-03-20T13:13:27.729Z,6.00
2023-03-20T13:15:28.007Z,4.00
2023-03-20T13:17:28.429Z,4.80
2023-03-20T13:19:28.869Z,6.80
2023-03-20T13:21:29.489Z,3.60
2023-03-20T13:24:13.169Z,4.80
2023-03-20T13:26:13.437Z,3.60
2023-03-20T13:28:13.740Z,6.10
2023-03-20T13:30:14.023Z,4.70
2023-03-20T13:32:14.351Z,3.90
2023-03-20T13:34:14.793Z,3.50
2023-03-20T13:36:15.049Z,3.60
2023-03-20T13:38:15.399Z,3.80
2023-03-20T13:40:15.718Z,3.70
2023-03-20T13:42:15.987Z,4.40
2023-03-20T13:44:16.306Z,4.70
2023-03-20T13:46:16.643Z,5.20
2023-03-20T13:48:16.954Z,4.10
2023-03-20T13:50:17.352Z,3.60
2023-03-20T13:52:17.626Z,5.50
2023-03-20T13:54:17.917Z,3.10
2023-03-20T13:56:18.215Z,4.90
2023-03-20T13:58:18.606Z,4.60
2023-03-20T14:00:18.911Z,3.90
2023-03-20T14:02:19.222Z,3.10
2023-03-20T14:04:19.552Z,8.90
2023-03-20T14:06:19.865Z,4.40
2023-03-20T14:08:25.082Z,5.90
2023-03-20T14:10:25.381Z,4.00
2023-03-20T14:12:25.654Z,3.90
2023-03-20T14:14:26.010Z,3.80
2023-03-20T14:16:26.276Z,4.80
2023-03-20T14:18:26.589Z,5.70
2023-03-20T14:20:26.890Z,2.90
2023-03-20T14:22:27.223Z,4.30
2023-03-20T14:24:27.489Z,2.60
2023-03-20T14:26:27.797Z,2.50
2023-03-20T14:28:28.122Z,2.90
2023-03-20T14:30:28.457Z,2.10
2023-03-20T14:32:28.726Z,2.60
2023-03-20T14:34:29.046Z,5.50
2023-03-20T14:36:29.354Z,1.70
2023-03-20T14:38:29.674Z,2.30
2023-03-20T14:40:29.980Z,2.10
2023-03-20T14:42:30.275Z,2.10
2023-03-20T14:44:30.577Z,3.60
2023-03-20T14:46:30.889Z,2.90
2023-03-20T14:48:31.210Z,2.50
2023-03-20T14:50:31.513Z,2.90
2023-03-20T14:52:31.823Z,2.90
2023-03-20T14:54:32.137Z,3.00
2023-03-20T14:56:34.198Z,3.00
2023-03-20T14:58:34.488Z,5.20
2023-03-20T15:00:35.053Z,2.90
2023-03-20T15:02:35.417Z,2.20
2023-03-20T15:04:35.712Z,2.60
2023-03-20T15:06:36.038Z,2.30
2023-03-20T15:08:36.583Z,6.20
2023-03-20T15:10:37.092Z,4.90
2023-03-20T15:12:37.568Z,2.70
2023-03-20T15:14:37.883Z,2.00
2023-03-20T15:16:38.258Z,4.30
2023-03-20T15:18:38.576Z,2.30
2023-03-20T15:20:39.086Z,3.00
2023-03-20T15:22:39.421Z,2.30
2023-03-20T15:24:39.734Z,2.50
2023-03-20T15:26:40.088Z,4.80
2023-03-20T15:28:40.340Z,4.00
2023-03-20T15:30:40.686Z,5.10
2023-03-20T15:32:41.021Z,5.20
2023-03-20T15:34:41.291Z,3.70
2023-03-20T15:36:41.627Z,4.50
2023-03-20T15:38:41.922Z,4.80
2023-03-20T15:40:50.636Z,6.30
2023-03-20T15:42:47.446Z,8.50
2023-03-20T15:44:47.720Z,3.70
2023-03-20T15:46:48.043Z,4.70
2023-03-20T15:48:48.339Z,3.20
2023-03-20T15:50:49.022Z,4.10
2023-03-20T15:52:49.286Z,2.90
2023-03-20T15:54:49.650Z,3.80
2023-03-20T15:56:49.950Z,2.80
2023-03-20T15:58:50.414Z,2.70
2023-03-20T16:00:50.705Z,5.70
2023-03-20T16:02:50.957Z,3.30
2023-03-20T16:04:51.422Z,6.50
2023-03-20T16:06:51.843Z,3.50
2023-03-20T16:08:52.660Z,6.00
2023-03-20T16:10:52.965Z,3.80
2023-03-20T16:12:53.277Z,4.20
2023-03-20T16:14:53.560Z,4.90
2023-03-20T16:16:53.867Z,3.60
2023-03-20T16:18:54.186Z,3.10
2023-03-20T16:20:54.506Z,3.70
2023-03-20T16:22:54.790Z,4.50
2023-03-20T16:24:55.632Z,2.30
2023-03-20T16:26:55.988Z,3.40
2023-03-20T16:28:56.283Z,2.60
2023-03-20T16:30:56.719Z,4.40
2023-03-20T16:32:57.143Z,4.00
2023-03-20T16:34:57.433Z,4.40
2023-03-20T16:36:57.725Z,4.40
2023-03-20T16:38:58.332Z,4.10
2023-03-20T16:40:58.661Z,3.30
2023-03-20T16:42:58.944Z,4.60
2023-03-20T16:44:59.228Z,3.10
2023-03-20T16:46:59.575Z,3.40
2023-03-20T16:49:00.213Z,4.00
2023-03-20T16:51:00.854Z,2.70
2023-03-20T16:53:01.164Z,4.10
2023-03-20T16:55:01.472Z,3.70
2023-03-20T16:57:01.826Z,3.30
2023-03-20T16:59:02.152Z,4.60
2023-03-20T17:01:02.483Z,3.00
2023-03-20T17:03:02.830Z,1.90
2023-03-20T17:05:03.113Z,3.00
2023-03-20T17:07:03.409Z,2.30
2023-03-20T17:09:03.689Z,4.10
2023-03-20T17:11:04.252Z,2.00
2023-03-20T17:13:04.488Z,3.60
2023-03-20T17:15:05.764Z,2.80
2023-03-20T17:17:06.212Z,2.90
2023-03-20T17:19:06.499Z,2.70
2023-03-20T17:21:06.857Z,2.10
2023-03-20T17:23:07.768Z,3.80
2023-03-20T17:25:08.146Z,3.60
2023-03-20T17:28:03.634Z,4.80
2023-03-20T17:30:11.553Z,3.10
2023-03-20T17:32:13.605Z,3.80
2023-03-20T17:34:13.948Z,3.60
2023-03-20T17:36:14.279Z,2.80
2023-03-20T17:38:14.640Z,5.70
2023-03-20T17:40:14.908Z,3.40
2023-03-20T17:42:15.278Z,3.50
2023-03-20T17:44:15.624Z,2.00
2023-03-20T17:46:15.969Z,2.40
2023-03-20T17:48:16.294Z,1.30
2023-03-20T17:50:16.641Z,4.70
2023-03-20T17:52:16.924Z,3.50
2023-03-20T17:54:17.310Z,4.30
2023-03-20T17:56:17.585Z,2.70
2023-03-20T17:58:17.897Z,5.00
2023-03-20T18:00:18.257Z,3.80
2023-03-20T18:02:18.642Z,3.20
2023-03-20T18:04:18.942Z,2.60
2023-03-20T18:06:19.275Z,4.00
2023-03-20T18:08:19.529Z,2.20
2023-03-20T18:10:19.869Z,4.10
2023-03-20T18:12:20.186Z,4.90
2023-03-20T18:14:20.482Z,4.90
2023-03-20T18:16:20.883Z,5.50
2023-03-20T18:18:23.755Z,3.80
2023-03-20T18:20:24.294Z,3.60
2023-03-20T18:22:24.605Z,4.00
2023-03-20T18:24:24.859Z,3.70
2023-03-20T18:26:25.332Z,5.40
2023-03-20T18:28:25.658Z,5.70
2023-03-20T18:30:25.950Z,4.70
2023-03-20T18:32:26.234Z,4.80
2023-03-20T18:34:26.528Z,5.50
2023-03-20T18:36:26.842Z,5.40
2023-03-20T18:38:27.135Z,4.80
2023-03-20T18:40:27.417Z,5.20
2023-03-20T18:42:27.785Z,5.50
2023-03-20T18:44:28.049Z,4.30
2023-03-20T18:46:28.433Z,6.80
2023-03-20T18:48:28.696Z,5.00
2023-03-20T18:50:28.996Z,4.70
2023-03-20T18:52:29.300Z,5.70
2023-03-20T18:54:29.601Z,5.90
2023-03-20T18:56:29.872Z,5.50
2023-03-20T18:58:30.133Z,5.10
2023-03-20T19:00:30.442Z,7.30
2023-03-20T19:02:30.834Z,5.30
2023-03-20T19:04:31.139Z,5.50
2023-03-20T19:06:31.425Z,5.20
2023-03-20T19:08:31.733Z,4.50
2023-03-20T19:10:32.044Z,7.30
2023-03-20T19:12:32.323Z,6.00
2023-03-20T19:14:37.542Z,4.80
2023-03-20T19:16:38.263Z,5.00
2023-03-20T19:18:40.082Z,5.90
2023-03-20T19:20:40.515Z,5.10
2023-03-20T19:22:40.820Z,6.20
2023-03-20T19:24:41.113Z,5.60
2023-03-20T19:26:41.428Z,5.90
2023-03-20T19:28:41.786Z,5.10
2023-03-20T19:30:42.080Z,10.70
2023-03-20T19:32:42.401Z,6.30
2023-03-20T19:36:48.015Z,7.00
2023-03-20T19:38:48.291Z,5.30
2023-03-20T19:40:48.610Z,5.50
2023-03-20T19:43:01.452Z,5.40
2023-03-20T19:44:54.141Z,6.60
2023-03-20T19:46:54.486Z,7.30
2023-03-20T19:48:57.850Z,9.30
2023-03-20T19:50:58.181Z,7.00
2023-03-20T19:52:58.862Z,6.40
2023-03-20T19:55:02.913Z,6.30
2023-03-20T19:57:03.545Z,5.10
2023-03-20T19:59:04.165Z,8.40
2023-03-20T20:01:14.014Z,9.00
2023-03-20T20:03:09.727Z,5.70
2023-03-20T20:05:10.003Z,7.00
2023-03-20T20:07:53.087Z,6.80
2023-03-20T20:09:15.458Z,5.50
2023-03-20T20:11:20.747Z,5.20
2023-03-20T20:13:21.337Z,6.20
2023-03-20T20:15:21.660Z,6.00
2023-03-20T20:17:21.981Z,7.70
2023-03-20T20:19:22.412Z,4.60
2023-03-20T20:23:27.894Z,8.40
2023-03-20T20:25:28.315Z,10.50
2023-03-20T20:27:28.562Z,6.00
2023-03-20T20:29:28.878Z,5.30
2023-03-20T20:31:29.271Z,8.20
2023-03-20T20:33:29.638Z,6.20
2023-03-20T20:35:47.743Z,7.00
2023-03-20T20:39:40.452Z,7.70
2023-03-20T20:41:40.737Z,6.80
2023-03-20T20:44:14.101Z,5.20
2023-03-20T20:45:46.364Z,7.20
2023-03-20T20:47:46.636Z,10.30
2023-03-20T20:49:46.965Z,10.40
2023-03-20T20:51:47.228Z,7.20
2023-03-20T20:53:47.562Z,9.90
2023-03-20T20:55:48.131Z,8.30
2023-03-20T20:57:48.419Z,8.20
2023-03-20T20:59:48.764Z,8.70
2023-03-20T21:01:49.075Z,8.90
2023-03-20T21:03:49.370Z,9.10
2023-03-20T21:05:49.697Z,10.20
2023-03-20T21:07:50.014Z,8.30
2023-03-20T21:09:50.349Z,6.50
2023-03-20T21:11:50.630Z,9.00
2023-03-20T21:13:50.926Z,12.30
2023-03-20T21:15:51.258Z,10.70
2023-03-20T21:18:00.385Z,9.80
2023-03-20T21:19:56.781Z,10.80
2023-03-20T21:21:57.125Z,15.10
2023-03-20T21:23:58.028Z,10.50
2023-03-20T21:25:58.398Z,9.90
2023-03-20T21:27:58.765Z,7.50
2023-03-20T21:29:59.086Z,9.10
2023-03-20T21:31:59.593Z,9.70
2023-03-20T21:33:59.922Z,10.10
2023-03-20T21:36:00.301Z,9.50
2023-03-20T21:40:05.816Z,8.20
2023-03-20T21:42:06.181Z,8.40
2023-03-20T21:44:06.468Z,7.80
2023-03-20T21:46:46.713Z,7.50
2023-03-20T21:48:56.419Z,10.20
2023-03-20T21:50:46.539Z,7.20
2023-03-20T21:53:00.346Z,7.80
2023-03-20T22:02:49.111Z,7.70
2023-03-20T22:12:01.717Z,8.00
2023-03-20T22:14:13.448Z,6.40
2023-03-20T22:15:46.681Z,6.80
2023-03-20T22:22:34.418Z,7.00
2023-03-20T22:24:28.949Z,4.00
2023-03-20T22:28:26.672Z,6.90
2023-03-20T22:30:51.464Z,7.40
2023-03-20T22:36:57.249Z,6.70
2023-03-20T22:40:59.990Z,5.50
2023-03-20T22:42:51.449Z,6.20
2023-03-20T22:46:45.455Z,6.10
2023-03-20T22:48:38.756Z,7.30
2023-03-20T22:50:39.208Z,6.60
2023-03-20T22:52:48.707Z,6.20
2023-03-20T22:54:44.721Z,6.40
2023-03-20T22:56:44.986Z,8.30
2023-03-20T22:58:45.343Z,7.60
2023-03-20T23:00:45.672Z,8.00
2023-03-20T23:02:46.590Z,6.40
2023-03-20T23:04:46.982Z,7.10
2023-03-20T23:06:47.257Z,7.20
2023-03-20T23:08:52.334Z,6.00
2023-03-20T23:10:52.752Z,7.80
2023-03-20T23:12:53.084Z,6.50
2023-03-20T23:14:53.444Z,7.30
2023-03-20T23:16:53.817Z,8.50
2023-03-20T23:18:54.095Z,7.90
2023-03-20T23:20:54.384Z,7.70
2023-03-20T23:22:54.684Z,7.20
2023-03-20T23:24:57.314Z,10.30
2023-03-20T23:27:00.040Z,8.50
2023-03-20T23:29:00.318Z,8.10
2023-03-20T23:31:10.032Z,6.30
2023-03-20T23:33:05.824Z,8.80
2023-03-20T23:35:06.104Z,5.80
2023-03-20T23:37:06.427Z,6.20
2023-03-20T23:39:06.758Z,7.00
2023-03-20T23:41:07.028Z,6.40
2023-03-20T23:43:07.336Z,6.00
2023-03-20T23:45:19.637Z,5.80
2023-03-20T23:47:20.125Z,7.00
2023-03-20T23:49:18.038Z,6.60
2023-03-20T23:51:18.356Z,6.90
2023-03-20T23:53:20.908Z,7.90
2023-03-20T23:55:21.526Z,7.00
2023-03-20T23:57:21.880Z,5.90
2023-03-20T23:59:22.775Z,6.80
